Weather forecast for Bozoy (Бозой)

Russia, 588 m
N53.011, E104.880


Sounding

Red line — air temperature ˚C.
Blue line — thermal bubble temperature ˚C.
Green line — dew point temperature ˚C.
Wind speed is in meters per second.

Table forecast

GFS 0.25˚ model

temp. wind gust humid. clouds prec. press. hpbl
Mon22 00:00 16 19.0 nne 2 3 84 49 0.0 1007 23
03:00 15 47.0 ne 1 2 91 26 0.1 1007 23
06:00 13 63.0 ene 1 1 93 100 0.0 1006 23
09:00 18 144.0 se 1 2 78 93 0.0 1007 335
12:00 24 215.0 sw 1 1 52 67 0.0 1005 1077
15:00 29 21.0 nne 1 2 36 84 0.0 1004 2025
18:00 24 320.0 nw 4 5 51 100 0.1 1003 504
21:00 22 332.0 nnw 2 5 63 100 0.3 1004 164
 
Tue23 00:00 18 232.0 sw 2 3 84 100 0.7 1003 62
03:00 16 254.0 wsw 5 8 98 100 2.3 1004 297
06:00 16 293.0 wnw 3 8 97 100 1.6 1003 270
09:00 17 307.0 nw 4 8 93 100 3.1 1004 298
12:00 18 328.0 nnw 4 7 90 100 2.1 1004 331
15:00 19 328.0 nnw 4 9 83 100 2.4 1003 410
18:00 21 313.0 nw 3 5 68 100 0.5 1003 418
21:00 18 333.0 nnw 3 7 81 100 0.9 1004 249
 
Wed24 00:00 17 3.0 n 0 0 84 100 0.0 1004 23
03:00 15 45.0 ne 1 1 88 100 0.0 1005 23
06:00 14 52.0 ne 1 1 91 100 0.0 1004 23
09:00 18 99.0 e 1 2 79 100 0.0 1005 210
12:00 23 125.0 se 3 4 55 100 0.0 1003 836
15:00 27 129.0 se 4 5 39 95 0.0 1002 2014
18:00 27 144.0 se 5 6 35 64 0.0 1001 2244
21:00 23 134.0 se 2 3 48 32 0.0 1001 36
 
Thu25 00:00 16 86.0 e 2 2 70 0 0.0 1001 24
03:00 15 67.0 ene 2 3 69 1 0.0 1000 38
06:00 15 70.0 ene 3 6 68 0 0.0 1000 105
09:00 21 107.0 ese 4 8 49 3 0.0 999 405
12:00 27 126.0 se 6 7 33 98 0.0 998 1741
15:00 29 148.0 sse 6 6 29 74 0.0 996 2367
18:00 29 132.0 se 6 7 27 5 0.0 996 2265
21:00 24 89.0 e 4 8 38 3 0.0 997 210
 
Fri26 00:00 18 79.0 e 4 9 51 0 0.0 998 205
03:00 17 79.0 e 4 10 48 0 0.0 998 194
06:00 16 67.0 ene 4 9 54 0 0.0 998 162
09:00 22 92.0 e 6 10 42 0 0.0 998 440
12:00 28 121.0 ese 7 9 24 0 0.0 996 1948
15:00 30 118.0 ese 7 8 22 0 0.0 995 2310
18:00 30 108.0 ese 6 7 23 0 0.0 994 2496
21:00 25 89.0 e 4 9 33 0 0.0 995 366
 

0.040 s